Time;durP1;ratioP1;P1;durP2;ratioP2;P2;SDS_P1;SDS_P2;PMS_P1;PMS_P2;Temp;Humidity;BMP_temperature;BMP_pressure;BME280_temperature;BME280_humidity;BME280_pressure;Samples;Min_cycle;Max_cycle;Signal;HPM_P1;HPM_P2
2023/04/10 00:03:10;;;;;;;;;;;20.40;31.30;;;;;;8399349;28;20015;-43
2023/04/10 00:07:11;;;;;;;;;;;20.40;31.30;;;;;;8399300;28;19971;-43
2023/04/10 00:11:11;;;;;;;;;;;20.40;31.30;;;;;;8399288;28;19959;-43
2023/04/10 00:15:12;;;;;;;;;;;20.30;31.20;;;;;;8398932;28;19916;-43
2023/04/10 00:19:12;;;;;;;;;;;20.30;31.30;;;;;;8398254;28;20370;-42
2023/04/10 00:23:13;;;;;;;;;;;20.30;31.30;;;;;;8399134;28;19924;-42
2023/04/10 00:27:13;;;;;;;;;;;20.30;31.40;;;;;;8398395;28;19924;-43
2023/04/10 00:31:14;;;;;;;;;;;20.30;31.40;;;;;;8398866;28;19913;-43
2023/04/10 00:35:14;;;;;;;;;;;20.20;31.30;;;;;;8398668;28;19922;-44
2023/04/10 00:39:15;;;;;;;;;;;20.20;31.20;;;;;;8398136;28;19966;-43
2023/04/10 00:43:18;;;;;;;;;;;20.20;31.30;;;;;;8398472;28;19917;-43
2023/04/10 00:47:18;;;;;;;;;;;20.20;31.20;;;;;;8398109;28;19920;-44
2023/04/10 00:51:21;;;;;;;;;;;20.20;31.30;;;;;;8397556;28;19969;-43
2023/04/10 00:55:25;;;;;;;;;;;20.20;31.30;;;;;;8397850;28;20007;-43
2023/04/10 00:59:26;;;;;;;;;;;20.20;31.30;;;;;;8397486;28;20014;-42
2023/04/10 01:03:26;;;;;;;;;;;20.20;31.30;;;;;;8397745;28;19929;-43
2023/04/10 01:07:30;;;;;;;;;;;20.10;31.30;;;;;;8396125;28;19925;-43
2023/04/10 01:11:39;;;;;;;;;;;20.10;31.40;;;;;;8396848;28;19913;-42
2023/04/10 01:15:55;;;;;;;;;;;20.10;31.40;;;;;;8397299;28;19952;-42
2023/04/10 01:20:18;;;;;;;;;;;20.10;31.30;;;;;;8397388;28;19916;-42
2023/04/10 01:24:36;;;;;;;;;;;20.10;31.30;;;;;;8396848;28;19917;-42
2023/04/10 01:28:55;;;;;;;;;;;20.10;31.30;;;;;;8396940;28;20365;-42
2023/04/10 01:32:57;;;;;;;;;;;20.00;31.30;;;;;;8396614;28;19939;-43
2023/04/10 01:37:02;;;;;;;;;;;20.00;31.30;;;;;;8396779;28;19916;-42
2023/04/10 01:41:04;;;;;;;;;;;20.00;31.30;;;;;;8396636;28;19912;-42
2023/04/10 01:45:07;;;;;;;;;;;20.00;31.80;;;;;;8396456;28;19917;-42
2023/04/10 01:49:07;;;;;;;;;;;20.00;31.30;;;;;;8396424;28;19944;-43
2023/04/10 01:53:08;;;;;;;;;;;19.90;31.30;;;;;;8396654;28;19935;-42
2023/04/10 01:57:09;;;;;;;;;;;19.90;31.40;;;;;;8395959;28;19916;-43
2023/04/10 02:01:10;;;;;;;;;;;19.90;31.30;;;;;;8396511;28;19995;-42
2023/04/10 02:05:10;;;;;;;;;;;20.00;31.30;;;;;;8396464;28;19921;-42
2023/04/10 02:09:15;;;;;;;;;;;19.90;31.30;;;;;;8395930;28;20015;-42
2023/04/10 02:13:18;;;;;;;;;;;19.90;31.30;;;;;;8396225;28;19923;-42
2023/04/10 02:17:22;;;;;;;;;;;19.90;31.30;;;;;;8396187;28;20254;-43
2023/04/10 02:21:22;;;;;;;;;;;19.90;31.30;;;;;;8396153;28;19966;-42
2023/04/10 02:25:22;;;;;;;;;;;19.80;31.30;;;;;;8396175;28;19996;-42
2023/04/10 02:29:23;;;;;;;;;;;19.80;31.20;;;;;;8395365;28;20363;-42
2023/04/10 02:33:23;;;;;;;;;;;19.80;31.30;;;;;;8396199;28;19916;-43
2023/04/10 02:37:24;;;;;;;;;;;19.80;31.30;;;;;;8395797;28;19916;-43
2023/04/10 02:41:25;;;;;;;;;;;19.80;31.30;;;;;;8398382;28;19917;-42
2023/04/10 02:45:25;;;;;;;;;;;19.80;31.30;;;;;;8402514;28;19924;-42
2023/04/10 02:49:26;;;;;;;;;;;19.80;31.30;;;;;;8401701;28;20023;-41
2023/04/10 02:53:26;;;;;;;;;;;19.80;31.20;;;;;;8401461;28;19917;-42
2023/04/10 02:57:27;;;;;;;;;;;19.80;31.30;;;;;;8401852;28;19916;-42
2023/04/10 03:01:28;;;;;;;;;;;19.80;31.30;;;;;;8401802;28;19923;-42
2023/04/10 03:05:29;;;;;;;;;;;19.70;31.30;;;;;;8401090;28;19983;-42
2023/04/10 03:09:29;;;;;;;;;;;19.70;31.30;;;;;;8401353;28;19924;-43
2023/04/10 03:13:30;;;;;;;;;;;19.70;31.30;;;;;;8401343;28;20007;-42
2023/04/10 03:17:30;;;;;;;;;;;19.70;31.30;;;;;;8400585;28;19936;-43
2023/04/10 03:21:31;;;;;;;;;;;19.70;31.30;;;;;;8400891;28;19912;-42
2023/04/10 03:25:35;;;;;;;;;;;19.70;31.30;;;;;;8401705;28;19921;-43
2023/04/10 03:29:35;;;;;;;;;;;19.70;31.30;;;;;;8400265;28;20305;-43
2023/04/10 03:33:36;;;;;;;;;;;19.70;31.20;;;;;;8400757;28;19951;-45
2023/04/10 03:37:36;;;;;;;;;;;19.70;31.20;;;;;;8400453;28;19920;-43
2023/04/10 03:41:37;;;;;;;;;;;19.70;31.20;;;;;;8400035;28;20428;-42
2023/04/10 03:45:37;;;;;;;;;;;19.70;31.20;;;;;;8400426;28;19912;-43
2023/04/10 03:49:37;;;;;;;;;;;19.70;31.20;;;;;;8400066;28;19924;-43
2023/04/10 03:53:38;;;;;;;;;;;19.70;31.20;;;;;;8399468;28;20019;-42
2023/04/10 03:57:38;;;;;;;;;;;19.60;31.20;;;;;;8399879;28;19983;-42
2023/04/10 04:01:39;;;;;;;;;;;19.70;31.20;;;;;;8399536;28;19919;-43
2023/04/10 04:05:39;;;;;;;;;;;19.70;31.20;;;;;;8399519;28;20007;-43
2023/04/10 04:09:40;;;;;;;;;;;19.70;31.30;;;;;;8391308;28;19975;-43
2023/04/10 04:13:40;;;;;;;;;;;19.70;31.20;;;;;;8386999;28;19917;-43
2023/04/10 04:17:41;;;;;;;;;;;19.80;31.20;;;;;;8398783;28;19923;-43
2023/04/10 04:21:41;;;;;;;;;;;19.90;31.10;;;;;;8399417;28;19920;-43
2023/04/10 04:25:42;;;;;;;;;;;20.00;31.10;;;;;;8399181;28;19924;-43
2023/04/10 04:29:43;;;;;;;;;;;20.10;31.10;;;;;;8398333;28;19932;-43
2023/04/10 04:33:43;;;;;;;;;;;20.20;31.10;;;;;;8398735;28;19946;-43
2023/04/10 04:37:43;;;;;;;;;;;20.20;31.00;;;;;;8398617;28;19916;-43
2023/04/10 04:41:44;;;;;;;;;;;20.30;31.00;;;;;;8398026;28;19921;-43
2023/04/10 04:45:44;;;;;;;;;;;20.40;31.00;;;;;;8398452;28;19961;-43
2023/04/10 04:49:45;;;;;;;;;;;20.40;31.00;;;;;;8397897;28;19924;-44
2023/04/10 04:53:45;;;;;;;;;;;20.40;30.90;;;;;;8397700;28;20365;-44
2023/04/10 04:57:46;;;;;;;;;;;20.40;31.00;;;;;;8397822;28;19912;-43
2023/04/10 05:01:46;;;;;;;;;;;20.40;31.00;;;;;;8397719;28;20400;-43
2023/04/10 05:05:46;;;;;;;;;;;20.40;31.00;;;;;;8396803;28;19920;-43
2023/04/10 05:09:47;;;;;;;;;;;20.40;31.00;;;;;;8396545;28;19960;-43
2023/04/10 05:13:47;;;;;;;;;;;20.50;30.90;;;;;;8397391;28;19916;-43
2023/04/10 05:17:49;;;;;;;;;;;20.40;31.00;;;;;;8396939;28;19969;-43
2023/04/10 05:21:50;;;;;;;;;;;20.40;31.00;;;;;;8397447;28;19919;-42
2023/04/10 05:25:51;;;;;;;;;;;20.30;30.90;;;;;;8397225;28;19991;-43
2023/04/10 05:29:51;;;;;;;;;;;20.30;30.90;;;;;;8396548;28;19924;-42
2023/04/10 05:33:52;;;;;;;;;;;20.30;30.80;;;;;;8396921;28;19927;-43
2023/04/10 05:37:52;;;;;;;;;;;20.20;30.80;;;;;;8396815;28;19928;-42
2023/04/10 05:41:53;;;;;;;;;;;20.20;30.90;;;;;;8396269;28;19966;-43
2023/04/10 05:45:53;;;;;;;;;;;20.20;30.90;;;;;;8397188;28;19966;-43
2023/04/10 05:49:53;;;;;;;;;;;20.20;30.90;;;;;;8396378;28;19930;-43
2023/04/10 05:53:54;;;;;;;;;;;20.30;30.80;;;;;;8396083;28;19916;-43
2023/04/10 05:57:54;;;;;;;;;;;20.20;30.80;;;;;;8396477;28;19926;-43
2023/04/10 06:01:58;;;;;;;;;;;20.30;30.80;;;;;;8396308;28;19917;-43
2023/04/10 06:06:01;;;;;;;;;;;20.30;30.90;;;;;;8396194;28;20003;-43
2023/04/10 06:10:02;;;;;;;;;;;20.30;30.90;;;;;;8396116;28;19928;-43
2023/04/10 06:14:02;;;;;;;;;;;20.30;30.80;;;;;;8396042;28;19939;-44
2023/04/10 06:18:02;;;;;;;;;;;20.30;30.80;;;;;;8401665;28;19917;-43
2023/04/10 06:22:03;;;;;;;;;;;20.30;30.80;;;;;;8402865;28;19912;-44
2023/04/10 06:26:03;;;;;;;;;;;20.30;30.80;;;;;;8402812;28;19970;-43
2023/04/10 06:30:04;;;;;;;;;;;20.30;30.80;;;;;;8402016;28;19924;-43
2023/04/10 06:34:05;;;;;;;;;;;20.40;31.40;;;;;;8402639;28;19920;-43
2023/04/10 06:38:06;;;;;;;;;;;20.40;30.80;;;;;;8402315;28;20377;-44
2023/04/10 06:42:06;;;;;;;;;;;20.50;30.80;;;;;;8401954;28;20007;-43
2023/04/10 06:46:07;;;;;;;;;;;20.50;30.70;;;;;;8402218;28;19916;-44
2023/04/10 06:50:07;;;;;;;;;;;20.60;30.60;;;;;;8401904;28;19924;-43
2023/04/10 06:54:08;;;;;;;;;;;20.60;30.50;;;;;;8401322;28;19992;-43
2023/04/10 06:58:08;;;;;;;;;;;20.60;30.50;;;;;;8401599;28;19919;-43
2023/04/10 07:02:09;;;;;;;;;;;20.60;30.50;;;;;;8402166;28;19920;-44
2023/04/10 07:06:10;;;;;;;;;;;20.60;30.40;;;;;;8399781;28;20335;-43
2023/04/10 07:10:11;;;;;;;;;;;20.70;30.40;;;;;;8401431;28;20405;-44
2023/04/10 07:14:12;;;;;;;;;;;20.70;30.40;;;;;;8401085;28;19917;-43
2023/04/10 07:18:12;;;;;;;;;;;20.70;30.40;;;;;;8400677;28;20337;-43
2023/04/10 07:22:14;;;;;;;;;;;20.60;30.50;;;;;;8401216;28;19924;-44
2023/04/10 07:26:15;;;;;;;;;;;20.60;30.50;;;;;;8400396;28;19917;-43
2023/04/10 07:30:15;;;;;;;;;;;20.60;30.50;;;;;;8400173;28;20007;-43
2023/04/10 07:34:16;;;;;;;;;;;20.60;30.40;;;;;;8400915;28;20007;-44
2023/04/10 07:38:16;;;;;;;;;;;20.60;30.40;;;;;;8400584;28;19923;-44
2023/04/10 07:42:17;;;;;;;;;;;20.60;30.50;;;;;;8400099;28;19920;-44
2023/04/10 07:46:18;;;;;;;;;;;20.60;30.60;;;;;;8400229;28;20335;-43
2023/04/10 07:50:18;;;;;;;;;;;20.50;30.60;;;;;;8400203;28;19921;-44
2023/04/10 07:54:19;;;;;;;;;;;20.50;30.50;;;;;;8399649;28;19923;-44
2023/04/10 07:58:20;;;;;;;;;;;20.50;30.60;;;;;;8399965;28;19973;-44
2023/04/10 08:02:20;;;;;;;;;;;20.50;30.70;;;;;;8400084;28;19924;-43
2023/04/10 08:06:20;;;;;;;;;;;20.40;30.70;;;;;;8399320;28;20355;-44
2023/04/10 08:10:21;;;;;;;;;;;20.40;30.70;;;;;;8399406;28;19924;-43
2023/04/10 08:14:21;;;;;;;;;;;20.40;30.70;;;;;;8399443;28;19928;-44
2023/04/10 08:18:22;;;;;;;;;;;20.40;30.80;;;;;;8398872;28;19920;-45
2023/04/10 08:22:22;;;;;;;;;;;20.40;30.80;;;;;;8399315;28;20003;-44
2023/04/10 08:26:24;;;;;;;;;;;20.40;30.90;;;;;;8398611;28;19922;-42
2023/04/10 08:30:24;;;;;;;;;;;20.40;30.80;;;;;;8398723;28;19970;-43
2023/04/10 08:34:25;;;;;;;;;;;20.40;30.90;;;;;;8398760;28;19963;-45
2023/04/10 08:38:26;;;;;;;;;;;20.40;30.90;;;;;;8397199;28;19916;-42
2023/04/10 08:42:26;;;;;;;;;;;20.40;30.90;;;;;;8398854;28;20289;-45
2023/04/10 08:46:28;;;;;;;;;;;20.40;30.90;;;;;;8398304;28;20378;-44
2023/04/10 08:50:30;;;;;;;;;;;20.50;30.90;;;;;;8397986;28;19929;-43
2023/04/10 08:54:35;;;;;;;;;;;20.50;30.90;;;;;;8398054;28;19947;-43
2023/04/10 08:58:36;;;;;;;;;;;20.40;30.90;;;;;;8397916;28;19917;-43
2023/04/10 09:02:40;;;;;;;;;;;20.50;31.00;;;;;;8397563;28;19920;-44
2023/04/10 09:06:40;;;;;;;;;;;20.50;31.00;;;;;;8398006;28;19924;-43
2023/04/10 09:10:41;;;;;;;;;;;20.40;30.90;;;;;;8397758;28;20381;-43
2023/04/10 09:14:42;;;;;;;;;;;20.40;31.00;;;;;;8396153;28;19931;-43
2023/04/10 09:18:43;;;;;;;;;;;20.50;31.00;;;;;;8397550;28;19927;-43
2023/04/10 09:22:44;;;;;;;;;;;20.40;31.00;;;;;;8397484;28;19919;-43
2023/04/10 09:26:44;;;;;;;;;;;20.40;31.00;;;;;;8397061;28;19949;-44
2023/04/10 09:30:45;;;;;;;;;;;20.50;31.10;;;;;;8397237;28;20030;-43
2023/04/10 09:34:53;;;;;;;;;;;20.50;31.00;;;;;;8397089;28;19916;-43
2023/04/10 09:38:53;;;;;;;;;;;20.50;31.10;;;;;;8396514;28;19920;-43
2023/04/10 09:42:55;;;;;;;;;;;20.50;31.10;;;;;;8397127;28;19917;-43
2023/04/10 09:46:56;;;;;;;;;;;20.50;31.10;;;;;;8396779;28;20354;-45
2023/04/10 09:50:56;;;;;;;;;;;20.50;31.10;;;;;;8395954;28;19925;-44
2023/04/10 09:54:58;;;;;;;;;;;20.50;31.10;;;;;;8396700;28;20381;-44
2023/04/10 09:58:59;;;;;;;;;;;20.50;31.10;;;;;;8396447;28;20345;-45
2023/04/10 10:03:01;;;;;;;;;;;20.50;31.00;;;;;;8396509;28;19974;-44
2023/04/10 10:07:02;;;;;;;;;;;20.50;31.00;;;;;;8396535;28;19924;-43
2023/04/10 10:11:07;;;;;;;;;;;20.60;31.10;;;;;;8389028;28;19920;-44
2023/04/10 10:15:13;;;;;;;;;;;20.60;31.10;;;;;;8395808;28;19923;-43
2023/04/10 10:19:19;;;;;;;;;;;20.60;31.10;;;;;;8396161;28;19916;-43
2023/04/10 10:23:20;;;;;;;;;;;20.60;31.10;;;;;;8396374;28;19913;-43
2023/04/10 10:27:22;;;;;;;;;;;20.60;31.10;;;;;;8395767;28;19924;-44
2023/04/10 10:31:23;;;;;;;;;;;20.60;31.10;;;;;;8396194;28;19921;-43
2023/04/10 10:35:25;;;;;;;;;;;20.60;31.10;;;;;;8395615;28;20296;-42
2023/04/10 10:39:29;;;;;;;;;;;20.60;31.10;;;;;;8395984;28;19947;-43
2023/04/10 10:43:48;;;;;;;;;;;20.60;31.10;;;;;;8396240;28;20286;-43
2023/04/10 10:47:52;;;;;;;;;;;20.60;31.10;;;;;;8395625;28;20058;-44
2023/04/10 10:51:52;;;;;;;;;;;20.60;31.10;;;;;;8394837;28;20188;-44
2023/04/10 10:55:52;;;;;;;;;;;20.70;31.10;;;;;;8395833;28;20362;-43
2023/04/10 10:59:53;;;;;;;;;;;20.70;31.10;;;;;;8395105;28;20019;-42
2023/04/10 11:03:54;;;;;;;;;;;20.70;31.20;;;;;;8400903;28;19920;-43
2023/04/10 11:08:06;;;;;;;;;;;20.70;31.10;;;;;;8401746;28;19930;-43
2023/04/10 11:12:06;;;;;;;;;;;20.70;31.20;;;;;;8401167;28;19916;-44
2023/04/10 11:16:09;;;;;;;;;;;20.70;31.10;;;;;;8401233;28;20377;-45
2023/04/10 11:20:09;;;;;;;;;;;20.70;31.10;;;;;;8401101;28;20011;-44
2023/04/10 11:24:10;;;;;;;;;;;20.70;31.20;;;;;;8400607;28;20287;-44
2023/04/10 11:28:30;;;;;;;;;;;20.70;31.20;;;;;;8401113;28;20003;-42
2023/04/10 11:32:40;;;;;;;;;;;20.70;31.20;;;;;;8400158;28;19923;-43
2023/04/10 11:36:42;;;;;;;;;;;20.80;31.20;;;;;;8400907;28;20415;-44
2023/04/10 11:40:52;;;;;;;;;;;20.80;31.20;;;;;;8400373;28;19981;-44
2023/04/10 11:44:52;;;;;;;;;;;20.80;31.10;;;;;;8399906;28;20419;-43
2023/04/10 11:49:00;;;;;;;;;;;20.80;31.20;;;;;;8400459;28;20007;-43
2023/04/10 11:53:00;;;;;;;;;;;20.80;31.20;;;;;;8400333;28;19967;-43
2023/04/10 11:57:02;;;;;;;;;;;20.80;31.20;;;;;;8399968;28;20340;-44
2023/04/10 12:01:03;;;;;;;;;;;20.90;31.20;;;;;;8399966;28;20374;-43
2023/04/10 12:05:04;;;;;;;;;;;20.80;31.20;;;;;;8399807;28;19927;-44
2023/04/10 12:09:11;;;;;;;;;;;20.80;31.20;;;;;;8399358;28;19944;-44
2023/04/10 12:13:24;;;;;;;;;;;20.90;31.20;;;;;;8399539;28;19924;-42
2023/04/10 12:17:25;;;;;;;;;;;20.90;31.20;;;;;;8399100;28;20335;-43
2023/04/10 12:21:26;;;;;;;;;;;20.90;31.20;;;;;;8399279;28;19917;-44
2023/04/10 12:25:26;;;;;;;;;;;20.90;31.20;;;;;;8399063;28;19920;-43
2023/04/10 12:29:27;;;;;;;;;;;20.90;31.20;;;;;;8398878;28;20356;-44
2023/04/10 12:33:27;;;;;;;;;;;20.90;31.20;;;;;;8399254;28;19969;-44
2023/04/10 12:37:46;;;;;;;;;;;20.90;31.20;;;;;;8398667;28;20049;-44
2023/04/10 12:41:47;;;;;;;;;;;20.90;31.20;;;;;;8398318;28;20402;-44
2023/04/10 12:45:47;;;;;;;;;;;20.90;31.20;;;;;;8398828;28;19923;-44
2023/04/10 12:50:04;;;;;;;;;;;20.90;31.20;;;;;;8398236;28;19920;-43
2023/04/10 12:54:04;;;;;;;;;;;20.90;31.30;;;;;;8398028;28;19919;-44
2023/04/10 12:58:18;;;;;;;;;;;20.90;31.30;;;;;;8398127;28;19916;-43
2023/04/10 13:02:20;;;;;;;;;;;20.90;31.20;;;;;;8397982;28;19921;-44
2023/04/10 13:06:20;;;;;;;;;;;20.90;31.20;;;;;;8397380;28;19916;-43
2023/04/10 13:10:23;;;;;;;;;;;20.90;31.20;;;;;;8395223;28;20377;-44
2023/04/10 13:14:23;;;;;;;;;;;20.90;31.20;;;;;;8364268;28;19913;-43
2023/04/10 13:18:26;;;;;;;;;;;20.90;31.20;;;;;;8393712;28;22294;-43
2023/04/10 13:22:26;;;;;;;;;;;20.90;31.30;;;;;;8397229;28;19939;-43
2023/04/10 13:26:26;;;;;;;;;;;21.00;31.30;;;;;;8396427;28;19913;-43
2023/04/10 13:30:27;;;;;;;;;;;21.00;31.30;;;;;;8397421;28;20447;-43
2023/04/10 13:34:28;;;;;;;;;;;21.00;31.30;;;;;;8397532;28;19916;-43
2023/04/10 13:38:28;;;;;;;;;;;21.00;31.40;;;;;;8396738;28;20378;-43
2023/04/10 13:42:29;;;;;;;;;;;21.00;31.30;;;;;;8396804;28;19951;-44
2023/04/10 13:46:29;;;;;;;;;;;21.00;31.30;;;;;;8397114;28;19999;-43
2023/04/10 13:50:30;;;;;;;;;;;21.00;31.30;;;;;;8396378;28;19936;-43
2023/04/10 13:54:31;;;;;;;;;;;21.00;31.30;;;;;;8397103;28;19912;-42
2023/04/10 13:58:33;;;;;;;;;;;21.00;31.30;;;;;;8396606;28;19917;-43
2023/04/10 14:02:33;;;;;;;;;;;21.00;31.30;;;;;;8396217;28;19931;-44
2023/04/10 14:06:34;;;;;;;;;;;21.00;31.30;;;;;;8396356;28;19916;-44
2023/04/10 14:10:34;;;;;;;;;;;21.00;31.30;;;;;;8396500;28;19925;-43
2023/04/10 14:14:35;;;;;;;;;;;21.00;31.30;;;;;;8396192;28;20007;-44
2023/04/10 14:18:35;;;;;;;;;;;21.00;31.40;;;;;;8396628;28;20037;-43
2023/04/10 14:22:36;;;;;;;;;;;21.00;31.30;;;;;;8396385;28;19923;-44
2023/04/10 14:26:37;;;;;;;;;;;21.00;31.30;;;;;;8395720;28;19917;-43
2023/04/10 14:30:37;;;;;;;;;;;21.10;31.30;;;;;;8395942;28;21407;-44
2023/04/10 14:34:38;;;;;;;;;;;21.10;31.30;;;;;;8396512;28;20293;-44
2023/04/10 14:38:38;;;;;;;;;;;21.10;31.30;;;;;;8400769;28;20362;-44
2023/04/10 14:42:39;;;;;;;;;;;21.10;31.30;;;;;;8402487;28;19916;-44
2023/04/10 14:46:39;;;;;;;;;;;21.00;31.30;;;;;;8402598;28;20065;-44
2023/04/10 14:50:40;;;;;;;;;;;21.00;31.30;;;;;;8401461;28;19920;-44
2023/04/10 14:54:40;;;;;;;;;;;21.10;31.40;;;;;;8402517;28;20342;-44
2023/04/10 14:58:42;;;;;;;;;;;21.10;31.40;;;;;;8401791;28;19920;-44
2023/04/10 15:02:42;;;;;;;;;;;21.10;31.40;;;;;;8401416;28;19928;-44
2023/04/10 15:06:43;;;;;;;;;;;21.10;31.40;;;;;;8401620;28;19917;-45
2023/04/10 15:10:43;;;;;;;;;;;21.10;31.40;;;;;;8401529;28;19924;-44
2023/04/10 15:14:43;;;;;;;;;;;21.10;31.50;;;;;;8401095;28;20010;-46
2023/04/10 15:18:48;;;;;;;;;;;21.20;31.40;;;;;;8401456;28;19917;-44
2023/04/10 15:22:48;;;;;;;;;;;21.30;31.40;;;;;;8401243;28;19958;-44
2023/04/10 15:26:48;;;;;;;;;;;21.30;31.30;;;;;;8400466;28;20293;-44
2023/04/10 15:30:49;;;;;;;;;;;21.40;31.30;;;;;;8400774;28;20019;-43
2023/04/10 15:34:49;;;;;;;;;;;21.50;31.30;;;;;;8401097;28;19916;-44
2023/04/10 15:38:50;;;;;;;;;;;21.50;31.30;;;;;;8400192;28;19994;-44
2023/04/10 15:42:50;;;;;;;;;;;21.60;31.30;;;;;;8401052;28;19916;-44
2023/04/10 15:46:51;;;;;;;;;;;21.60;31.20;;;;;;8399886;28;19916;-44
2023/04/10 15:50:52;;;;;;;;;;;21.60;31.20;;;;;;8399754;28;19924;-44
2023/04/10 15:54:52;;;;;;;;;;;21.60;31.10;;;;;;8400599;28;19999;-44
2023/04/10 15:58:53;;;;;;;;;;;21.70;31.10;;;;;;8399996;28;19927;-44
2023/04/10 16:02:53;;;;;;;;;;;21.70;31.10;;;;;;8398444;28;19943;-44
2023/04/10 16:06:55;;;;;;;;;;;21.70;31.10;;;;;;8399583;28;19948;-44
2023/04/10 16:10:55;;;;;;;;;;;21.60;31.00;;;;;;8399619;28;19955;-43
2023/04/10 16:14:56;;;;;;;;;;;21.60;31.00;;;;;;8399121;28;19916;-45
2023/04/10 16:18:59;;;;;;;;;;;21.70;31.10;;;;;;8399490;28;20003;-45
2023/04/10 16:22:59;;;;;;;;;;;21.60;31.00;;;;;;8399394;28;19959;-44
2023/04/10 16:27:00;;;;;;;;;;;21.60;31.00;;;;;;8398697;28;19924;-44
2023/04/10 16:31:01;;;;;;;;;;;21.60;31.00;;;;;;8399425;28;20433;-44
2023/04/10 16:35:01;;;;;;;;;;;21.50;31.00;;;;;;8398930;28;19917;-44
2023/04/10 16:39:02;;;;;;;;;;;21.60;31.10;;;;;;8398351;28;19917;-44
2023/04/10 16:43:02;;;;;;;;;;;21.60;31.10;;;;;;8398826;28;19944;-44
2023/04/10 16:47:03;;;;;;;;;;;21.50;31.10;;;;;;8398506;28;20366;-43
2023/04/10 16:51:04;;;;;;;;;;;21.50;31.10;;;;;;8397937;28;20005;-44
2023/04/10 16:55:05;;;;;;;;;;;21.50;31.10;;;;;;8398140;28;20330;-44
2023/04/10 16:59:06;;;;;;;;;;;21.50;31.20;;;;;;8397309;28;19927;-43
2023/04/10 17:03:06;;;;;;;;;;;21.50;31.20;;;;;;8397791;28;19927;-44
2023/04/10 17:07:07;;;;;;;;;;;21.50;31.20;;;;;;8398261;28;20331;-45
2023/04/10 17:11:07;;;;;;;;;;;21.50;31.20;;;;;;8397916;28;20027;-43
2023/04/10 17:15:08;;;;;;;;;;;21.60;31.20;;;;;;8396968;28;19917;-42
2023/04/10 17:19:08;;;;;;;;;;;21.50;31.10;;;;;;8397523;28;20297;-43
2023/04/10 17:23:09;;;;;;;;;;;21.60;31.20;;;;;;8397319;28;19913;-44
2023/04/10 17:27:09;;;;;;;;;;;21.60;31.20;;;;;;8396838;28;20304;-45
2023/04/10 17:31:10;;;;;;;;;;;21.60;31.20;;;;;;8397202;28;19921;-43
2023/04/10 17:35:10;;;;;;;;;;;21.60;31.20;;;;;;8395633;28;20007;-44
2023/04/10 17:39:11;;;;;;;;;;;21.60;31.20;;;;;;8396326;28;19920;-44
2023/04/10 17:43:11;;;;;;;;;;;21.60;31.10;;;;;;8396787;28;20367;-44
2023/04/10 17:47:12;;;;;;;;;;;21.60;31.20;;;;;;8396738;28;19962;-44
2023/04/10 17:51:12;;;;;;;;;;;21.60;31.10;;;;;;8396449;28;19928;-43
2023/04/10 17:55:17;;;;;;;;;;;21.70;31.10;;;;;;8396476;28;20431;-44
2023/04/10 17:59:17;;;;;;;;;;;21.60;31.10;;;;;;8396720;28;19935;-44
2023/04/10 18:03:18;;;;;;;;;;;21.60;31.10;;;;;;8396378;28;19920;-44
2023/04/10 18:07:18;;;;;;;;;;;21.60;31.10;;;;;;8396344;28;19912;-45
2023/04/10 18:11:18;;;;;;;;;;;21.50;31.20;;;;;;8401540;28;19985;-45
2023/04/10 18:15:19;;;;;;;;;;;21.60;31.20;;;;;;8406926;28;20297;-44
2023/04/10 18:19:19;;;;;;;;;;;21.60;31.30;;;;;;8407248;28;19916;-45
2023/04/10 18:23:22;;;;;;;;;;;21.50;31.30;;;;;;8407210;28;19912;-44
2023/04/10 18:27:23;;;;;;;;;;;21.50;31.30;;;;;;8407039;28;20376;-44
2023/04/10 18:31:23;;;;;;;;;;;21.50;31.30;;;;;;8407567;28;20003;-44
2023/04/10 18:35:24;;;;;;;;;;;21.50;31.40;;;;;;8406547;28;19917;-43
2023/04/10 18:39:24;;;;;;;;;;;21.50;31.40;;;;;;8407246;28;19917;-44
2023/04/10 18:43:26;;;;;;;;;;;21.50;31.40;;;;;;8407014;28;20362;-44
2023/04/10 18:47:26;;;;;;;;;;;21.50;32.00;;;;;;8406401;28;19916;-43
2023/04/10 18:51:27;;;;;;;;;;;21.50;31.50;;;;;;8407469;28;20391;-44
2023/04/10 18:55:27;;;;;;;;;;;21.60;31.50;;;;;;8406723;28;20012;-43
2023/04/10 18:59:28;;;;;;;;;;;21.60;31.50;;;;;;8406245;28;19912;-43
2023/04/10 19:03:28;;;;;;;;;;;21.60;31.50;;;;;;8406855;28;19921;-44
2023/04/10 19:07:30;;;;;;;;;;;21.60;31.50;;;;;;8406433;28;19928;-45
2023/04/10 19:11:31;;;;;;;;;;;21.60;31.50;;;;;;8405407;28;19916;-44
2023/04/10 19:15:31;;;;;;;;;;;21.60;31.50;;;;;;8406405;28;19924;-44
2023/04/10 19:19:32;;;;;;;;;;;21.60;31.50;;;;;;8406747;28;19916;-43
2023/04/10 19:23:33;;;;;;;;;;;21.70;31.50;;;;;;8401884;28;20002;-44
2023/04/10 19:27:34;;;;;;;;;;;21.60;31.40;;;;;;8401204;28;19952;-45
2023/04/10 19:31:34;;;;;;;;;;;21.70;31.40;;;;;;8401457;28;20376;-44
2023/04/10 19:35:34;;;;;;;;;;;21.60;31.40;;;;;;8400564;28;20434;-45
2023/04/10 19:39:35;;;;;;;;;;;21.60;31.40;;;;;;8400896;28;19948;-44
2023/04/10 19:43:35;;;;;;;;;;;21.60;31.50;;;;;;8400632;28;19912;-44
2023/04/10 19:47:36;;;;;;;;;;;21.60;31.50;;;;;;8399961;28;20324;-44
2023/04/10 19:51:36;;;;;;;;;;;21.60;31.60;;;;;;8400874;28;19970;-45
2023/04/10 19:55:38;;;;;;;;;;;21.60;31.60;;;;;;8400237;28;20408;-44
2023/04/10 19:59:39;;;;;;;;;;;21.60;31.60;;;;;;8399693;28;20006;-44
2023/04/10 20:03:39;;;;;;;;;;;21.60;31.60;;;;;;8400069;28;20389;-45
2023/04/10 20:07:40;;;;;;;;;;;21.50;31.60;;;;;;8399813;28;19919;-44
2023/04/10 20:11:40;;;;;;;;;;;21.50;31.60;;;;;;8399692;28;20377;-44
2023/04/10 20:15:41;;;;;;;;;;;21.50;31.60;;;;;;8400176;28;19923;-45
2023/04/10 20:19:42;;;;;;;;;;;21.50;31.60;;;;;;8399276;28;19916;-44
2023/04/10 20:23:42;;;;;;;;;;;21.50;31.70;;;;;;8398908;28;19931;-44
2023/04/10 20:27:43;;;;;;;;;;;21.50;31.80;;;;;;8398936;28;19917;-43
2023/04/10 20:31:43;;;;;;;;;;;21.50;31.70;;;;;;8399267;28;19917;-44
2023/04/10 20:35:44;;;;;;;;;;;21.50;31.70;;;;;;8397558;28;19924;-44
2023/04/10 20:39:45;;;;;;;;;;;21.60;31.70;;;;;;8398543;28;19917;-44
2023/04/10 20:43:45;;;;;;;;;;;21.60;31.70;;;;;;8398709;28;19917;-44
2023/04/10 20:47:45;;;;;;;;;;;21.50;31.60;;;;;;8398221;28;20350;-44
2023/04/10 20:51:46;;;;;;;;;;;21.60;31.60;;;;;;8398589;28;20446;-44
2023/04/10 20:55:49;;;;;;;;;;;21.60;31.60;;;;;;8398886;28;19962;-44
2023/04/10 20:59:50;;;;;;;;;;;21.60;31.60;;;;;;8397641;28;19924;-43
2023/04/10 21:03:50;;;;;;;;;;;21.60;31.50;;;;;;8397938;28;19966;-44
2023/04/10 21:07:52;;;;;;;;;;;21.60;31.50;;;;;;8398093;28;20378;-44
2023/04/10 21:11:52;;;;;;;;;;;21.60;31.50;;;;;;8397320;28;19999;-44
2023/04/10 21:15:53;;;;;;;;;;;21.60;31.50;;;;;;8397583;28;19921;-44
2023/04/10 21:19:53;;;;;;;;;;;21.60;31.50;;;;;;8397514;28;20047;-44
2023/04/10 21:23:54;;;;;;;;;;;21.60;31.50;;;;;;8397021;28;19978;-44
2023/04/10 21:27:54;;;;;;;;;;;21.60;31.50;;;;;;8397752;28;19924;-43
2023/04/10 21:31:55;;;;;;;;;;;21.60;31.50;;;;;;8395795;28;19970;-43
2023/04/10 21:35:55;;;;;;;;;;;21.60;31.50;;;;;;8396654;28;20039;-44
2023/04/10 21:39:56;;;;;;;;;;;21.60;31.50;;;;;;8396886;28;19916;-44
2023/04/10 21:43:59;;;;;;;;;;;21.50;31.50;;;;;;8396896;28;19917;-44
2023/04/10 21:47:59;;;;;;;;;;;21.50;31.40;;;;;;8396237;28;19921;-44
2023/04/10 21:52:00;;;;;;;;;;;21.50;31.50;;;;;;8397038;28;19923;-44
2023/04/10 21:56:00;;;;;;;;;;;21.50;31.50;;;;;;8396738;28;19916;-44
2023/04/10 22:00:01;;;;;;;;;;;21.40;31.50;;;;;;8396315;28;20313;-43
2023/04/10 22:04:02;;;;;;;;;;;21.40;31.50;;;;;;8374005;28;19927;-44
2023/04/10 22:08:02;;;;;;;;;;;21.40;31.50;;;;;;8396821;28;20438;-44
2023/04/10 22:12:03;;;;;;;;;;;21.40;31.50;;;;;;8396003;28;19916;-44
2023/04/10 22:16:04;;;;;;;;;;;21.40;31.50;;;;;;8396719;28;19927;-43
2023/04/10 22:20:05;;;;;;;;;;;21.30;31.50;;;;;;8396350;28;20293;-44
2023/04/10 22:24:05;;;;;;;;;;;21.40;31.60;;;;;;8395871;28;19944;-43
2023/04/10 22:28:06;;;;;;;;;;;21.30;31.50;;;;;;8396519;28;19916;-44
2023/04/10 22:32:06;;;;;;;;;;;21.30;31.50;;;;;;8396170;28;19962;-45
2023/04/10 22:36:07;;;;;;;;;;;21.30;31.50;;;;;;8395750;28;20266;-43
2023/04/10 22:40:07;;;;;;;;;;;21.30;31.60;;;;;;8395874;28;19917;-42
2023/04/10 22:44:08;;;;;;;;;;;21.20;31.60;;;;;;8395867;28;19917;-42
2023/04/10 22:48:09;;;;;;;;;;;21.30;31.60;;;;;;8395705;28;20354;-42
2023/04/10 22:52:11;;;;;;;;;;;21.30;31.60;;;;;;8396148;28;19978;-44
2023/04/10 22:56:13;;;;;;;;;;;21.20;31.60;;;;;;8395711;28;19924;-43
2023/04/10 23:00:13;;;;;;;;;;;21.20;31.60;;;;;;8401461;28;19986;-42
2023/04/10 23:04:14;;;;;;;;;;;21.20;31.60;;;;;;8401658;28;19948;-42
2023/04/10 23:08:14;;;;;;;;;;;21.20;31.70;;;;;;8401866;28;20023;-43
2023/04/10 23:12:15;;;;;;;;;;;21.20;31.70;;;;;;8401086;28;20463;-42
2023/04/10 23:16:15;;;;;;;;;;;21.10;31.60;;;;;;8401679;28;19963;-43
2023/04/10 23:20:16;;;;;;;;;;;21.10;31.70;;;;;;8401239;28;19917;-43
2023/04/10 23:24:16;;;;;;;;;;;21.10;31.80;;;;;;8400799;28;19924;-42